Time;durP1;ratioP1;P1;durP2;ratioP2;P2;SDS_P1;SDS_P2;PMS_P1;PMS_P2;Temp;Humidity;BMP_temperature;BMP_pressure;BME280_temperature;BME280_humidity;BME280_pressure;Samples;Min_cycle;Max_cycle;Signal;HPM_P1;HPM_P2
2021/05/20 00:00:03;;;;;;;0.50;0.30;;;;;;;12.91;81.61;99074.88;1739226;82;21293;-62
2021/05/20 00:02:32;;;;;;;0.88;0.28;;;;;;;12.94;81.83;99070.81;1739227;82;21170;-63
2021/05/20 00:05:02;;;;;;;0.80;0.50;;;;;;;12.93;81.78;99069.14;1739343;82;21695;-63
2021/05/20 00:07:30;;;;;;;0.30;0.28;;;;;;;12.91;81.79;99074.88;1739238;82;21483;-63
2021/05/20 00:09:59;;;;;;;0.53;0.40;;;;;;;12.88;81.96;99075.38;1739156;82;21166;-63
2021/05/20 00:12:26;;;;;;;0.20;0.20;;;;;;;12.93;82.24;99071.89;1739289;82;21350;-63
2021/05/20 00:14:53;;;;;;;0.35;0.30;;;;;;;12.97;82.27;99071.16;1739093;82;21189;-62
2021/05/20 00:17:23;;;;;;;0.30;0.30;;;;;;;13.00;82.10;99069.32;1732413;82;21860;-62
2021/05/20 00:19:50;;;;;;;0.30;0.30;;;;;;;13.03;82.04;99072.11;1732213;82;21893;-62
2021/05/20 00:22:17;;;;;;;0.55;0.50;;;;;;;13.05;81.92;99071.87;1732328;82;21366;-62
2021/05/20 00:24:45;;;;;;;0.50;0.30;;;;;;;12.98;81.58;99070.61;1732258;82;21843;-63
2021/05/20 00:27:12;;;;;;;0.30;0.30;;;;;;;12.95;81.62;99072.48;1732414;82;21939;-62
2021/05/20 00:29:40;;;;;;;0.85;0.37;;;;;;;12.94;81.44;99074.39;1732434;82;21436;-66
2021/05/20 00:32:07;;;;;;;0.45;0.40;;;;;;;12.90;81.40;99075.12;1732408;82;21281;-63
2021/05/20 00:34:34;;;;;;;0.30;0.30;;;;;;;12.85;81.54;99079.98;1732474;82;21193;-63
2021/05/20 00:37:02;;;;;;;0.95;0.40;;;;;;;12.85;81.88;99077.23;1732462;82;21158;-63
2021/05/20 00:39:29;;;;;;;2.17;0.50;;;;;;;12.88;81.95;99078.13;1732457;82;21399;-64
2021/05/20 00:41:56;;;;;;;0.75;0.50;;;;;;;12.89;81.87;99077.05;1732435;82;21195;-63
2021/05/20 00:44:24;;;;;;;0.47;0.37;;;;;;;12.90;81.93;99080.63;1732440;82;21451;-63
2021/05/20 00:46:51;;;;;;;0.60;0.45;;;;;;;12.89;81.72;99069.34;1732450;82;22044;-63
2021/05/20 00:49:19;;;;;;;0.82;0.45;;;;;;;12.86;81.67;99077.53;1732501;82;21429;-63
2021/05/20 00:51:46;;;;;;;0.40;0.40;;;;;;;12.85;81.52;99071.74;1732393;82;21178;-63
2021/05/20 00:54:14;;;;;;;0.40;0.40;;;;;;;12.80;81.33;99082.64;1732467;82;21146;-64
2021/05/20 00:56:41;;;;;;;0.60;0.60;;;;;;;12.78;81.32;99085.33;1732473;82;21146;-63
2021/05/20 00:59:08;;;;;;;1.00;0.50;;;;;;;12.75;81.35;99082.53;1732476;82;21205;-62
2021/05/20 01:01:37;;;;;;;0.80;0.60;;;;;;;12.72;81.53;99087.15;1732521;82;21950;-63
2021/05/20 01:04:05;;;;;;;0.40;0.40;;;;;;;12.71;81.48;99081.36;1732443;82;21460;-63
2021/05/20 01:06:33;;;;;;;0.65;0.57;;;;;;;12.70;81.53;99084.64;1732497;82;21417;-63
2021/05/20 01:09:02;;;;;;;0.68;0.50;;;;;;;12.68;81.41;99087.34;1732394;82;22074;-63
2021/05/20 01:11:29;;;;;;;0.57;0.57;;;;;;;12.63;81.38;99081.20;1732475;82;21170;-63
2021/05/20 01:13:57;;;;;;;1.12;0.50;;;;;;;12.60;81.39;99077.56;1732449;82;21205;-64
2021/05/20 01:16:25;;;;;;;1.85;0.50;;;;;;;12.59;81.49;99082.77;1735857;82;21853;-65
2021/05/20 01:18:54;;;;;;;0.70;0.70;;;;;;;12.58;81.58;99079.72;1739209;82;21194;-64
2021/05/20 01:21:21;;;;;;;1.00;0.60;;;;;;;12.60;81.57;99078.94;1739229;82;21162;-64
2021/05/20 01:23:49;;;;;;;0.82;0.60;;;;;;;12.61;81.35;99077.02;1739375;82;21234;-65
2021/05/20 01:26:16;;;;;;;1.95;0.60;;;;;;;12.57;81.25;99073.09;1739288;82;21150;-63
2021/05/20 01:28:44;;;;;;;1.95;0.70;;;;;;;12.56;81.34;99074.17;1739185;82;21132;-63
2021/05/20 01:31:12;;;;;;;1.95;0.78;;;;;;;12.52;81.35;99079.86;1739259;82;21170;-63
2021/05/20 01:33:39;;;;;;;0.60;0.60;;;;;;;12.47;81.40;99071.51;1739443;82;21423;-63
2021/05/20 01:36:06;;;;;;;1.80;0.90;;;;;;;12.48;81.64;99067.14;1739221;82;21313;-65
2021/05/20 01:41:10;;;;;;;0.78;0.70;;;;;;;12.53;81.55;99070.54;1739246;82;21837;-63
2021/05/20 01:43:39;;;;;;;0.70;0.60;;;;;;;12.54;81.27;99067.55;1739304;82;21154;-63
2021/05/20 01:46:06;;;;;;;1.07;0.82;;;;;;;12.56;81.17;99066.77;1739207;82;21933;-63
2021/05/20 01:48:37;;;;;;;1.10;0.70;;;;;;;12.60;81.04;99065.73;1739338;82;21256;-63
2021/05/20 01:51:17;;;;;;;1.45;0.80;;;;;;;12.57;80.92;99063.48;1739195;82;21190;-63
2021/05/20 01:53:48;;;;;;;1.02;0.78;;;;;;;12.58;81.15;99057.73;1739342;82;21221;-63
2021/05/20 01:56:17;;;;;;;1.07;0.80;;;;;;;12.59;80.96;99075.89;1739318;82;21272;-63
2021/05/20 01:58:45;;;;;;;1.05;0.88;;;;;;;12.57;80.71;99075.84;1739403;82;21566;-64
2021/05/20 02:01:14;;;;;;;1.50;0.68;;;;;;;12.51;80.58;99062.54;1739359;82;21167;-64
2021/05/20 02:03:42;;;;;;;0.88;0.80;;;;;;;12.53;80.77;99060.92;1739463;82;21264;-64
2021/05/20 02:06:09;;;;;;;1.40;0.90;;;;;;;12.53;80.69;99060.92;1739276;82;21158;-63
2021/05/20 02:08:37;;;;;;;1.77;0.98;;;;;;;12.51;80.74;99062.54;1739401;82;21285;-64
2021/05/20 02:11:07;;;;;;;1.65;1.05;;;;;;;12.51;80.85;99065.28;1739315;82;21190;-64
2021/05/20 02:13:34;;;;;;;1.72;0.80;;;;;;;12.52;80.91;99075.73;1739286;82;21385;-64
2021/05/20 02:16:04;;;;;;;1.10;0.80;;;;;;;12.55;80.79;99070.59;1739341;82;21138;-63
2021/05/20 02:18:32;;;;;;;1.50;0.80;;;;;;;12.56;80.46;99069.52;1739519;82;21197;-64
2021/05/20 02:20:59;;;;;;;1.95;0.90;;;;;;;12.52;80.24;99076.57;1739285;82;21198;-64
2021/05/20 02:23:26;;;;;;;1.10;1.00;;;;;;;12.49;80.53;99076.22;1739234;82;21213;-64
2021/05/20 02:25:54;;;;;;;1.15;0.80;;;;;;;12.48;80.45;99075.39;1739260;82;21460;-64
2021/05/20 02:28:21;;;;;;;1.62;1.00;;;;;;;12.46;80.32;99068.47;1739316;82;21394;-64
2021/05/20 02:30:49;;;;;;;1.32;1.12;;;;;;;12.44;80.27;99076.11;1739326;82;21380;-64
2021/05/20 02:33:16;;;;;;;1.12;0.90;;;;;;;12.43;80.39;99071.70;1739344;82;21206;-64
2021/05/20 02:35:43;;;;;;;1.65;1.10;;;;;;;12.43;80.19;99065.66;1739261;82;21167;-64
2021/05/20 02:38:11;;;;;;;2.50;0.88;;;;;;;12.46;80.19;99060.23;1739282;82;21193;-64
2021/05/20 02:40:38;;;;;;;3.12;1.10;;;;;;;12.52;80.21;99063.37;1738643;82;21981;-64
2021/05/20 02:43:06;;;;;;;1.55;1.10;;;;;;;12.55;79.86;99058.77;1738413;82;21746;-63
2021/05/20 02:45:33;;;;;;;2.20;1.20;;;;;;;12.54;79.76;99062.59;1738406;82;21713;-64
2021/05/20 02:48:01;;;;;;;1.30;0.90;;;;;;;12.53;79.64;99066.41;1738401;82;21170;-64
2021/05/20 02:50:28;;;;;;;1.40;0.80;;;;;;;12.53;79.58;99055.43;1738328;82;21468;-64
2021/05/20 02:52:56;;;;;;;1.20;1.05;;;;;;;12.52;79.54;99068.87;1737938;82;21384;-64
2021/05/20 02:55:23;;;;;;;1.32;1.00;;;;;;;12.48;79.60;99058.07;1737775;82;21201;-65
2021/05/20 02:57:57;;;;;;;2.87;0.90;;;;;;;12.44;79.69;99063.21;1737777;82;21178;-64
2021/05/20 03:00:21;;;;;;;1.32;0.90;;;;;;;12.42;79.80;99066.74;1737310;82;21147;-65
2021/05/20 03:02:49;;;;;;;1.82;1.10;;;;;;;12.40;79.94;99056.53;1737732;82;21169;-65
2021/05/20 03:05:17;;;;;;;3.25;1.10;;;;;;;12.36;79.88;99057.56;1737330;82;21481;-63
2021/05/20 03:07:46;;;;;;;2.05;1.00;;;;;;;12.38;80.04;99066.39;1737256;82;21377;-63
2021/05/20 03:10:14;;;;;;;1.10;1.00;;;;;;;12.42;79.64;99059.04;1737343;82;21138;-62
2021/05/20 03:12:42;;;;;;;2.40;0.90;;;;;;;12.38;79.21;99062.27;1737346;82;21173;-63
2021/05/20 03:15:10;;;;;;;1.90;0.90;;;;;;;12.43;79.28;99067.58;1737192;82;21169;-63
2021/05/20 03:17:37;;;;;;;2.47;0.80;;;;;;;12.46;79.13;99070.67;1737161;82;21146;-63
2021/05/20 03:20:06;;;;;;;2.17;1.20;;;;;;;12.47;78.91;99070.97;1737124;82;21457;-62
2021/05/20 03:22:33;;;;;;;1.65;0.95;;;;;;;12.45;78.52;99072.29;1737250;82;21922;-63
2021/05/20 03:25:02;;;;;;;1.52;0.90;;;;;;;12.46;78.25;99061.59;1737322;82;21229;-62
2021/05/20 03:27:29;;;;;;;2.45;1.20;;;;;;;12.43;77.97;99062.08;1736996;82;21150;-64
2021/05/20 03:29:56;;;;;;;1.25;1.00;;;;;;;12.39;77.94;99065.85;1737265;82;21201;-63
2021/05/20 03:32:24;;;;;;;4.55;1.32;;;;;;;12.40;78.17;99072.19;1737103;82;21357;-63
2021/05/20 03:34:52;;;;;;;1.80;1.00;;;;;;;12.40;78.06;99065.31;1737044;82;21131;-63
2021/05/20 03:37:19;;;;;;;2.77;1.27;;;;;;;12.43;77.96;99066.20;1736977;82;21210;-63
2021/05/20 03:39:47;;;;;;;1.75;1.00;;;;;;;12.45;77.56;99063.52;1737133;82;21154;-63
2021/05/20 03:42:15;;;;;;;2.27;0.93;;;;;;;12.46;77.33;99058.31;1736965;82;21919;-62
2021/05/20 03:44:42;;;;;;;1.52;1.42;;;;;;;12.46;76.91;99072.59;1736885;82;21416;-63
2021/05/20 03:47:09;;;;;;;1.50;1.00;;;;;;;12.43;76.94;99059.34;1736921;82;21312;-63
2021/05/20 03:49:37;;;;;;;4.22;0.90;;;;;;;12.44;77.16;99064.59;1737355;82;21166;-63
2021/05/20 03:52:06;;;;;;;1.37;0.90;;;;;;;12.49;77.32;99069.35;1736894;82;21181;-64
2021/05/20 03:54:39;;;;;;;2.60;1.00;;;;;;;12.53;76.91;99061.76;1736741;82;21161;-63
2021/05/20 03:57:04;;;;;;;3.15;0.90;;;;;;;12.55;76.86;99056.02;1736227;82;21956;-63
2021/05/20 03:59:32;;;;;;;2.72;0.98;;;;;;;12.58;76.80;99061.02;1736774;82;21396;-64
2021/05/20 04:01:59;;;;;;;1.77;1.05;;;;;;;12.61;76.75;99061.91;1736748;82;21396;-64
2021/05/20 04:04:27;;;;;;;2.62;1.20;;;;;;;12.65;76.63;99067.22;1736501;82;21201;-64
2021/05/20 04:06:55;;;;;;;3.70;2.37;;;;;;;12.63;76.28;99063.87;1736437;82;21341;-64
2021/05/20 04:09:22;;;;;;;3.17;1.67;;;;;;;12.63;76.26;99070.75;1736402;82;21166;-64
2021/05/20 04:11:49;;;;;;;2.58;1.67;;;;;;;12.66;76.53;99077.13;1736345;82;21262;-64
2021/05/20 04:14:18;;;;;;;3.22;1.42;;;;;;;12.69;76.49;99080.23;1736474;82;21201;-64
2021/05/20 04:16:45;;;;;;;2.50;1.10;;;;;;;12.76;76.32;99087.50;1736397;82;21193;-64
2021/05/20 04:19:13;;;;;;;3.05;1.10;;;;;;;12.78;75.82;99086.70;1736307;82;21440;-64
2021/05/20 04:21:43;;;;;;;2.42;1.40;;;;;;;12.77;75.69;99073.50;1735676;82;21147;-64
2021/05/20 04:24:11;;;;;;;2.17;1.30;;;;;;;12.78;75.55;99079.30;1735027;82;21937;-64
2021/05/20 04:26:38;;;;;;;3.35;1.00;;;;;;;12.82;76.03;99082.39;1735094;82;21276;-64
2021/05/20 04:29:08;;;;;;;1.37;1.00;;;;;;;12.89;76.21;99074.30;1735061;82;21280;-64
2021/05/20 04:31:35;;;;;;;2.90;1.05;;;;;;;12.98;75.75;99093.44;1735228;82;21533;-63
2021/05/20 04:34:04;;;;;;;1.67;1.30;;;;;;;12.97;75.40;99076.66;1735317;82;21273;-63
2021/05/20 04:36:31;;;;;;;3.75;1.02;;;;;;;13.00;75.12;99082.20;1735385;82;21438;-64
2021/05/20 04:38:58;;;;;;;1.12;0.95;;;;;;;13.00;74.78;99085.81;1735639;82;21437;-64
2021/05/20 04:41:26;;;;;;;1.30;0.80;;;;;;;12.97;74.30;99093.15;1736110;82;21913;-63
2021/05/20 04:43:53;;;;;;;2.25;1.10;;;;;;;12.94;74.49;99081.80;1737259;82;21270;-64
2021/05/20 04:46:20;;;;;;;2.30;1.10;;;;;;;12.93;74.27;99090.59;1737943;82;21284;-64
2021/05/20 04:48:49;;;;;;;1.55;0.90;;;;;;;12.91;74.12;99087.26;1736592;82;21178;-70
2021/05/20 04:51:23;;;;;;;2.45;1.00;;;;;;;12.91;74.51;99096.88;1737140;82;21162;-69
2021/05/20 04:54:12;;;;;;;2.17;1.22;;;;;;;12.94;74.07;99096.39;1738245;82;21166;-69
